Time;durP1;ratioP1;P1;durP2;ratioP2;P2;SDS_P1;SDS_P2;PMS_P1;PMS_P2;Temp;Humidity;BMP_temperature;BMP_pressure;BME280_temperature;BME280_humidity;BME280_pressure;Samples;Min_cycle;Max_cycle;Signal;HPM_P1;HPM_P2
2022/06/25 00:01:59;;;;;;;10.10;5.97;;;21.20;97.30;;;;;;4978323;28;20201;-87
2022/06/25 00:07:08;;;;;;;6.00;4.97;;;21.10;97.30;;;;;;4995998;28;20236;-86
2022/06/25 00:09:34;;;;;;;6.77;5.97;;;21.10;97.30;;;;;;4977527;28;20428;-86
2022/06/25 00:14:44;;;;;;;7.10;6.10;;;21.00;97.30;;;;;;4995090;28;20264;-87
2022/06/25 00:17:09;;;;;;;8.60;6.23;;;20.90;97.30;;;;;;4978284;28;20823;-86
2022/06/25 00:19:35;;;;;;;8.07;6.17;;;20.90;97.30;;;;;;4977392;28;20204;-86
2022/06/25 00:22:01;;;;;;;8.70;6.37;;;20.80;97.30;;;;;;4977799;28;20174;-87
2022/06/25 00:24:26;;;;;;;7.77;5.90;;;20.80;97.30;;;;;;4977349;28;20182;-86
2022/06/25 00:26:52;;;;;;;6.47;5.67;;;20.70;97.30;;;;;;4993617;28;20205;-86
2022/06/25 00:29:17;;;;;;;10.60;5.80;;;20.70;97.30;;;;;;4987046;28;20178;-87
2022/06/25 00:31:43;;;;;;;12.77;6.33;;;20.70;97.30;;;;;;4974202;28;20652;-87
2022/06/25 00:34:08;;;;;;;7.27;6.07;;;20.60;97.30;;;;;;4988523;28;20308;-86
2022/06/25 00:36:34;;;;;;;7.63;5.93;;;20.60;97.30;;;;;;4977857;28;20197;-88
2022/06/25 00:39:00;;;;;;;7.80;5.77;;;20.60;97.30;;;;;;4977675;28;20185;-88
2022/06/25 00:41:25;;;;;;;12.37;6.60;;;20.60;97.30;;;;;;4977396;28;20193;-88
2022/06/25 00:43:51;;;;;;;11.80;6.97;;;20.60;97.30;;;;;;4983041;28;20577;-87
2022/06/25 00:46:17;;;;;;;6.73;6.13;;;20.60;97.30;;;;;;4972204;28;20186;-87
2022/06/25 00:48:42;;;;;;;8.77;6.60;;;20.50;97.30;;;;;;4970513;28;20209;-88
2022/06/25 00:51:11;;;;;;;8.40;6.07;;;20.50;97.30;;;;;;4978116;28;20236;-88
2022/06/25 00:53:40;;;;;;;10.80;6.77;;;20.40;97.30;;;;;;4989396;28;20208;-87
2022/06/25 00:56:08;;;;;;;10.10;7.00;;;20.40;97.30;;;;;;4997330;28;20447;-87
2022/06/25 00:58:39;;;;;;;11.93;6.73;;;20.40;97.30;;;;;;4983665;28;20591;-87
2022/06/25 01:01:08;;;;;;;7.10;6.20;;;20.30;97.30;;;;;;4977226;28;20406;-87
2022/06/25 01:03:34;;;;;;;7.97;5.60;;;20.20;97.30;;;;;;4977668;28;20427;-87
2022/06/25 01:06:01;;;;;;;8.40;6.63;;;20.20;97.30;;;;;;4976921;28;20444;-87
2022/06/25 01:08:28;;;;;;;12.60;6.07;;;20.20;97.30;;;;;;4976141;28;20510;-88
2022/06/25 01:10:53;;;;;;;11.90;6.67;;;20.20;97.30;;;;;;4976201;28;20439;-88
2022/06/25 01:13:22;;;;;;;8.70;5.93;;;20.20;97.30;;;;;;4976319;28;20461;-87
2022/06/25 01:15:49;;;;;;;8.60;6.60;;;20.10;97.30;;;;;;4976432;28;20372;-87
2022/06/25 01:18:15;;;;;;;7.13;5.63;;;20.10;97.30;;;;;;4976114;28;20444;-87
2022/06/25 01:20:43;;;;;;;8.50;6.60;;;20.10;97.30;;;;;;4976969;28;20414;-87
2022/06/25 01:23:15;;;;;;;13.77;6.43;;;20.00;97.30;;;;;;4980592;28;20557;-87
2022/06/25 01:25:42;;;;;;;6.70;5.87;;;20.00;97.30;;;;;;4980913;28;20918;-87
2022/06/25 01:28:08;;;;;;;8.60;6.50;;;20.00;97.30;;;;;;4983660;28;20516;-87
2022/06/25 01:30:34;;;;;;;8.70;6.27;;;20.00;97.30;;;;;;4979207;28;20421;-88
2022/06/25 01:33:00;;;;;;;9.70;6.13;;;20.00;97.30;;;;;;4978483;28;20523;-87
2022/06/25 01:35:26;;;;;;;10.53;6.23;;;20.00;97.30;;;;;;4986822;28;20431;-88
2022/06/25 01:37:53;;;;;;;9.80;6.33;;;20.00;97.30;;;;;;4979052;28;20527;-87
2022/06/25 01:40:19;;;;;;;9.10;6.90;;;20.00;97.30;;;;;;4978395;28;20213;-87
2022/06/25 01:43:01;;;;;;;10.27;7.17;;;20.00;97.30;;;;;;4979094;28;20415;-87
2022/06/25 01:45:37;;;;;;;9.83;6.67;;;20.00;97.30;;;;;;4987879;28;20445;-88
2022/06/25 01:48:05;;;;;;;12.70;7.10;;;20.00;97.30;;;;;;4967197;28;20437;-87
2022/06/25 01:50:33;;;;;;;11.60;6.73;;;20.00;97.30;;;;;;4976656;28;20491;-89
2022/06/25 01:52:59;;;;;;;12.63;7.57;;;20.00;97.30;;;;;;4966931;28;20472;-87
2022/06/25 01:55:24;;;;;;;13.73;8.00;;;20.00;97.30;;;;;;4978459;28;20869;-87
2022/06/25 01:57:52;;;;;;;11.50;6.70;;;20.10;97.30;;;;;;4978050;28;20205;-87
2022/06/25 02:00:23;;;;;;;11.63;6.83;;;20.10;97.30;;;;;;4978737;28;20209;-87
2022/06/25 02:02:50;;;;;;;12.80;6.80;;;20.10;97.30;;;;;;4978229;28;20937;-87
2022/06/25 02:05:17;;;;;;;8.70;6.57;;;20.00;97.30;;;;;;4977667;28;20424;-88
2022/06/25 02:07:44;;;;;;;7.80;6.20;;;20.00;97.30;;;;;;4991377;28;20507;-88
2022/06/25 02:10:10;;;;;;;11.40;6.93;;;20.00;97.30;;;;;;4978564;28;20421;-87
2022/06/25 02:12:36;;;;;;;11.03;6.93;;;19.90;97.30;;;;;;4979185;28;20423;-87
2022/06/25 02:15:06;;;;;;;7.80;6.30;;;19.90;97.30;;;;;;4979094;28;20465;-87
2022/06/25 02:17:33;;;;;;;7.53;6.13;;;19.90;97.30;;;;;;4978062;28;20444;-86
2022/06/25 02:19:59;;;;;;;11.23;6.20;;;19.90;97.30;;;;;;4979710;28;20421;-86
2022/06/25 02:22:24;;;;;;;15.53;6.03;;;19.90;97.30;;;;;;4979077;28;20531;-86
2022/06/25 02:24:52;;;;;;;11.60;6.90;;;19.90;97.30;;;;;;4994999;28;20189;-87
2022/06/25 02:27:17;;;;;;;9.77;5.87;;;19.90;97.30;;;;;;4977466;28;20285;-87
2022/06/25 02:29:43;;;;;;;8.77;6.27;;;19.90;97.30;;;;;;4988097;28;20451;-86
2022/06/25 02:32:08;;;;;;;16.83;7.60;;;19.80;97.30;;;;;;5009457;28;20190;-87
2022/06/25 02:34:34;;;;;;;11.60;6.63;;;19.80;97.30;;;;;;4977560;28;20218;-87
2022/06/25 02:36:59;;;;;;;12.07;6.40;;;19.80;97.30;;;;;;4977651;28;20236;-86
2022/06/25 02:39:25;;;;;;;12.10;6.10;;;19.80;97.30;;;;;;4977320;28;20185;-87
2022/06/25 02:41:51;;;;;;;10.63;6.53;;;19.80;97.30;;;;;;4979803;28;20184;-87
2022/06/25 02:44:16;;;;;;;9.33;5.80;;;19.70;97.30;;;;;;4986967;28;20336;-86
2022/06/25 02:46:42;;;;;;;8.00;5.80;;;19.70;97.30;;;;;;4977387;28;20202;-86
2022/06/25 02:49:07;;;;;;;9.53;5.60;;;19.70;97.30;;;;;;4976866;28;20181;-86
2022/06/25 02:51:33;;;;;;;7.90;5.57;;;19.70;97.30;;;;;;5011930;28;20227;-86
2022/06/25 02:53:59;;;;;;;10.60;5.20;;;19.70;97.30;;;;;;5006994;28;20259;-87
2022/06/25 02:59:09;;;;;;;7.83;5.23;;;19.70;97.30;;;;;;5033874;28;20267;-86
2022/06/25 03:01:34;;;;;;;8.97;5.37;;;19.70;97.30;;;;;;5010475;28;21117;-87
2022/06/25 03:04:00;;;;;;;9.10;5.47;;;19.80;97.30;;;;;;4996083;28;20185;-85
2022/06/25 03:06:26;;;;;;;9.10;5.87;;;19.80;97.30;;;;;;5013819;28;20369;-86
2022/06/25 03:08:52;;;;;;;9.43;5.70;;;19.80;97.30;;;;;;5015629;28;20531;-86
2022/06/25 03:11:18;;;;;;;11.20;5.63;;;19.80;97.30;;;;;;4984843;28;20264;-87
2022/06/25 03:13:44;;;;;;;11.00;5.80;;;19.80;97.30;;;;;;4995966;28;20523;-87
2022/06/25 03:16:09;;;;;;;10.03;5.30;;;19.80;97.30;;;;;;4994179;28;20428;-88
2022/06/25 03:18:36;;;;;;;7.60;5.07;;;19.80;97.30;;;;;;4998841;28;20455;-87
2022/06/25 03:21:02;;;;;;;7.40;5.40;;;19.80;97.30;;;;;;5000292;28;20552;-87
2022/06/25 03:23:28;;;;;;;8.60;5.30;;;19.80;97.30;;;;;;4998734;28;20579;-86
2022/06/25 03:25:55;;;;;;;10.30;5.40;;;19.80;97.30;;;;;;5001387;28;20177;-86
2022/06/25 03:28:21;;;;;;;8.67;5.40;;;19.80;97.30;;;;;;5015419;28;20440;-89
2022/06/25 03:30:46;;;;;;;8.93;5.47;;;19.80;97.30;;;;;;4995544;28;20424;-86
2022/06/25 03:33:13;;;;;;;7.10;5.57;;;19.70;97.30;;;;;;4995902;28;20475;-86
2022/06/25 03:35:39;;;;;;;7.77;5.33;;;19.80;97.30;;;;;;4998051;28;20207;-85
2022/06/25 03:38:05;;;;;;;11.03;5.73;;;19.70;97.30;;;;;;4996181;28;21158;-87
2022/06/25 03:40:30;;;;;;;10.77;6.17;;;19.70;97.30;;;;;;4995475;28;20195;-86
2022/06/25 03:42:56;;;;;;;9.77;5.10;;;19.80;97.30;;;;;;4998673;28;20264;-86
2022/06/25 03:45:22;;;;;;;6.70;4.80;;;19.80;97.30;;;;;;5015784;28;20185;-85
2022/06/25 03:47:50;;;;;;;8.60;4.90;;;19.80;97.30;;;;;;4993500;28;20201;-86
2022/06/25 03:50:20;;;;;;;8.73;4.87;;;19.80;97.30;;;;;;4984102;28;20222;-87
2022/06/25 03:52:47;;;;;;;7.70;5.03;;;19.80;97.30;;;;;;4971722;28;20775;-87
2022/06/25 03:55:13;;;;;;;7.57;4.63;;;19.90;97.30;;;;;;4977090;28;20456;-87
2022/06/25 03:57:38;;;;;;;9.43;4.90;;;19.90;97.30;;;;;;4972396;28;20449;-87
2022/06/25 04:00:06;;;;;;;14.73;4.70;;;19.90;97.30;;;;;;4975729;28;20425;-86
2022/06/25 04:02:32;;;;;;;9.37;5.23;;;19.90;97.30;;;;;;4975735;28;20182;-87
2022/06/25 04:04:58;;;;;;;9.23;4.70;;;19.90;97.30;;;;;;4979255;28;20429;-87
2022/06/25 04:07:24;;;;;;;9.00;4.87;;;19.90;97.30;;;;;;4979350;28;20528;-87
2022/06/25 04:09:49;;;;;;;19.23;7.13;;;20.00;97.30;;;;;;4976000;28;20586;-86
2022/06/25 04:12:15;;;;;;;6.17;4.40;;;20.00;97.30;;;;;;4975735;28;20186;-88
2022/06/25 04:14:41;;;;;;;6.83;5.20;;;20.00;97.30;;;;;;4979831;28;20202;-87
2022/06/25 04:17:07;;;;;;;8.57;5.40;;;20.00;97.30;;;;;;4977069;28;20202;-86
2022/06/25 04:19:40;;;;;;;4.93;4.40;;;20.10;97.30;;;;;;4977649;28;20460;-87
2022/06/25 04:22:12;;;;;;;6.10;4.83;;;20.10;97.30;;;;;;4981927;28;21016;-86
2022/06/25 04:24:39;;;;;;;6.73;4.10;;;20.10;97.30;;;;;;4981005;28;20436;-87
2022/06/25 04:27:07;;;;;;;6.17;4.97;;;20.20;97.30;;;;;;4976240;28;20441;-86
2022/06/25 04:29:32;;;;;;;8.30;4.87;;;20.20;97.30;;;;;;4978094;28;20425;-87
2022/06/25 04:31:58;;;;;;;7.70;4.63;;;20.20;97.30;;;;;;5002378;28;20427;-86
2022/06/25 04:34:24;;;;;;;6.93;4.40;;;20.20;97.30;;;;;;4987056;28;20208;-87
2022/06/25 04:36:50;;;;;;;7.30;4.37;;;20.20;97.30;;;;;;4974690;28;20202;-87
2022/06/25 04:39:16;;;;;;;7.83;4.47;;;20.20;97.30;;;;;;4979129;28;21005;-87
2022/06/25 04:41:42;;;;;;;8.10;5.00;;;20.20;97.30;;;;;;4979551;28;20421;-86
2022/06/25 04:44:08;;;;;;;7.83;4.30;;;20.20;97.30;;;;;;4996406;28;20444;-86
2022/06/25 04:46:33;;;;;;;6.33;4.90;;;20.20;97.30;;;;;;4966602;28;20467;-87
2022/06/25 04:48:59;;;;;;;5.07;4.13;;;20.30;97.30;;;;;;4985568;28;20205;-86
2022/06/25 04:51:26;;;;;;;5.20;4.13;;;20.30;97.30;;;;;;4980074;28;20264;-85
2022/06/25 04:53:55;;;;;;;10.03;4.23;;;20.20;97.30;;;;;;4979845;28;20767;-85
2022/06/25 04:56:25;;;;;;;5.93;4.50;;;20.20;97.30;;;;;;4980044;28;20479;-86
2022/06/25 04:58:51;;;;;;;5.50;4.20;;;20.20;97.30;;;;;;4996637;28;20456;-86
2022/06/25 05:01:17;;;;;;;4.77;4.27;;;20.20;97.30;;;;;;5007895;28;20897;-86
2022/06/25 05:03:44;;;;;;;7.30;4.40;;;20.20;97.30;;;;;;4983483;28;20433;-86
2022/06/25 05:06:13;;;;;;;8.83;4.60;;;20.20;97.30;;;;;;4979745;28;20523;-86
2022/06/25 05:08:39;;;;;;;5.10;4.00;;;20.20;97.30;;;;;;4977352;28;20429;-86
2022/06/25 05:11:05;;;;;;;6.77;4.43;;;20.20;97.30;;;;;;4984184;28;20421;-87
2022/06/25 05:13:31;;;;;;;11.90;4.43;;;20.20;97.30;;;;;;4989490;28;20474;-86
2022/06/25 05:15:57;;;;;;;8.60;5.20;;;20.20;97.30;;;;;;4976630;28;20325;-85
2022/06/25 05:18:22;;;;;;;7.77;4.23;;;20.10;97.30;;;;;;4993305;28;20826;-85
2022/06/25 05:20:48;;;;;;;6.20;4.20;;;20.20;97.30;;;;;;4976652;28;20456;-86
2022/06/25 05:23:14;;;;;;;6.10;4.40;;;20.20;97.30;;;;;;4972222;28;20204;-86
2022/06/25 05:25:41;;;;;;;5.77;4.30;;;20.20;97.30;;;;;;4975586;28;20429;-86
2022/06/25 05:28:07;;;;;;;5.57;4.73;;;20.20;97.30;;;;;;4966145;28;20551;-86
2022/06/25 05:30:33;;;;;;;7.03;3.97;;;20.20;97.30;;;;;;4979325;28;20433;-86
2022/06/25 05:32:59;;;;;;;4.83;4.23;;;20.20;97.30;;;;;;4967922;28;20492;-86
2022/06/25 05:35:25;;;;;;;5.60;4.53;;;20.20;97.30;;;;;;4969670;28;20413;-85
2022/06/25 05:37:51;;;;;;;5.67;4.47;;;20.30;97.30;;;;;;4968834;28;20979;-87
2022/06/25 05:40:17;;;;;;;9.67;4.50;;;20.30;97.30;;;;;;4977040;28;20433;-86
2022/06/25 05:42:43;;;;;;;7.50;4.63;;;20.30;97.30;;;;;;4981381;28;20212;-85
2022/06/25 05:45:09;;;;;;;7.27;4.50;;;20.30;97.30;;;;;;4979617;28;20426;-85
2022/06/25 05:47:35;;;;;;;9.33;3.97;;;20.30;97.30;;;;;;4975707;28;20631;-85
2022/06/25 05:50:01;;;;;;;8.30;3.77;;;20.30;97.30;;;;;;4968622;28;20480;-86
2022/06/25 05:52:26;;;;;;;6.07;4.27;;;20.40;97.30;;;;;;4971510;28;20722;-85
2022/06/25 05:54:53;;;;;;;6.57;3.80;;;20.40;97.30;;;;;;4957441;28;20190;-86
2022/06/25 05:57:19;;;;;;;5.13;3.90;;;20.40;97.30;;;;;;4983502;28;20198;-86
2022/06/25 05:59:45;;;;;;;6.53;3.43;;;20.40;97.30;;;;;;4985355;28;20436;-85
2022/06/25 06:02:12;;;;;;;5.60;4.00;;;20.40;97.30;;;;;;4975104;28;20428;-86
2022/06/25 06:04:37;;;;;;;7.80;3.97;;;20.40;97.30;;;;;;4974208;28;20425;-85
2022/06/25 06:07:04;;;;;;;5.53;3.93;;;20.50;97.30;;;;;;4974602;28;20453;-86
2022/06/25 06:09:31;;;;;;;5.83;3.73;;;20.50;97.30;;;;;;4956467;28;20213;-86
2022/06/25 06:11:57;;;;;;;3.97;3.20;;;20.50;97.30;;;;;;4983980;28;20495;-86
2022/06/25 06:14:23;;;;;;;3.97;3.37;;;20.50;97.30;;;;;;4985262;28;20475;-86
2022/06/25 06:16:49;;;;;;;4.77;3.50;;;20.50;97.30;;;;;;4982915;28;20437;-85
2022/06/25 06:19:14;;;;;;;6.80;3.60;;;20.50;97.30;;;;;;4966241;28;20220;-85
2022/06/25 06:21:42;;;;;;;5.70;3.90;;;20.50;97.30;;;;;;4975746;28;20216;-86
2022/06/25 06:24:08;;;;;;;4.07;3.40;;;20.50;97.30;;;;;;4976766;28;20659;-86
2022/06/25 06:26:34;;;;;;;4.80;3.30;;;20.50;97.30;;;;;;4974510;28;20488;-85
2022/06/25 06:29:02;;;;;;;4.83;4.00;;;20.60;97.30;;;;;;5002513;28;20188;-85
2022/06/25 06:31:28;;;;;;;6.93;3.37;;;20.60;97.30;;;;;;4972678;28;20426;-86
2022/06/25 06:33:54;;;;;;;3.93;3.30;;;20.60;97.30;;;;;;4968141;28;20823;-85
2022/06/25 06:36:19;;;;;;;3.63;2.90;;;20.60;97.30;;;;;;4993828;28;20181;-86
2022/06/25 06:38:45;;;;;;;4.80;3.60;;;20.60;97.30;;;;;;4971046;28;20192;-86
2022/06/25 06:41:13;;;;;;;6.43;3.90;;;20.60;97.30;;;;;;4966070;28;20213;-86
2022/06/25 06:43:39;;;;;;;3.67;3.37;;;20.60;97.30;;;;;;4966881;28;20239;-86
2022/06/25 06:46:19;;;;;;;5.33;3.40;;;20.60;97.30;;;;;;4976631;28;20424;-88
2022/06/25 06:48:46;;;;;;;3.70;3.20;;;20.60;97.30;;;;;;4968554;28;20440;-87
2022/06/25 06:51:26;;;;;;;5.97;3.40;;;20.60;97.30;;;;;;4984828;28;20973;-87
2022/06/25 07:07:23;;;;;;;7.17;3.83;;;20.80;97.30;;;;;;4992741;28;20493;-87
2022/06/25 07:09:54;;;;;;;5.10;4.03;;;20.80;97.30;;;;;;4991927;28;20456;-87
2022/06/25 07:12:26;;;;;;;4.43;3.70;;;20.90;97.30;;;;;;4993995;28;20491;-87
2022/06/25 07:14:56;;;;;;;8.93;4.07;;;20.90;97.30;;;;;;4997013;28;20460;-87
2022/06/25 07:17:25;;;;;;;10.23;5.20;;;20.90;97.30;;;;;;4991882;28;21013;-87
2022/06/25 07:20:08;;;;;;;;;;;;;;;;;;;;;
2022/06/25 07:22:36;;;;;;;6.80;3.70;;;21.10;97.30;;;;;;4993921;28;20917;-87
2022/06/25 07:25:05;;;;;;;5.60;3.60;;;21.10;97.30;;;;;;4990642;28;20807;-87
2022/06/25 07:28:15;;;;;;;5.40;4.37;;;21.20;97.30;;;;;;4990786;28;20961;-88
2022/06/25 07:31:05;;;;;;;9.90;4.97;;;21.30;97.30;;;;;;4988024;28;20450;-88
2022/06/25 08:05:25;;;;;;;7.07;5.40;;;22.50;97.30;;;;;;4962803;28;20470;-87
2022/06/25 08:08:07;;;;;;;5.53;5.17;;;22.60;97.30;;;;;;4922287;29;20449;-87
2022/06/25 08:44:38;;;;;;;6.63;4.90;;;23.50;97.30;;;;;;5014173;28;20475;-89
2022/06/25 08:47:03;;;;;;;7.23;4.80;;;23.70;97.30;;;;;;4997850;28;20535;-89
2022/06/25 08:49:33;;;;;;;12.80;5.67;;;23.80;96.60;;;;;;4982325;28;20190;-89
2022/06/25 08:52:01;;;;;;;8.73;6.00;;;23.90;95.20;;;;;;4978455;28;20182;-89
2022/06/25 08:54:26;;;;;;;7.67;5.53;;;24.00;94.70;;;;;;4981272;28;20474;-89
2022/06/25 08:56:57;;;;;;;8.47;5.93;;;24.10;94.60;;;;;;4998111;28;20528;-88
2022/06/25 08:59:24;;;;;;;8.07;5.90;;;24.20;94.60;;;;;;5004900;28;20588;-89
2022/06/25 09:01:57;;;;;;;7.97;5.23;;;24.30;94.20;;;;;;4988175;28;20923;-89
2022/06/25 09:04:34;;;;;;;7.83;5.40;;;24.30;93.00;;;;;;4978377;28;20472;-89
2022/06/25 09:07:17;;;;;;;6.23;5.07;;;24.40;93.80;;;;;;4977918;28;20453;-89
2022/06/25 09:09:55;;;;;;;6.50;5.20;;;24.40;93.80;;;;;;4978233;28;20420;-88
2022/06/25 09:12:24;;;;;;;6.47;4.90;;;24.50;93.30;;;;;;4980958;28;20831;-88
2022/06/25 09:14:55;;;;;;;7.37;4.93;;;24.60;92.90;;;;;;4986109;28;20460;-89
2022/06/25 09:17:26;;;;;;;7.40;5.00;;;24.70;92.90;;;;;;4977907;28;20452;-89
2022/06/25 09:19:54;;;;;;;7.33;5.20;;;24.70;92.20;;;;;;4977457;28;20496;-89
2022/06/25 09:22:23;;;;;;;6.63;5.50;;;24.80;92.80;;;;;;4985925;28;20422;-86
2022/06/25 09:24:58;;;;;;;10.07;5.27;;;24.80;91.90;;;;;;4970373;28;20459;-88
2022/06/25 09:27:38;;;;;;;5.07;4.80;;;24.80;91.50;;;;;;4977740;28;20969;-89
2022/06/25 09:30:08;;;;;;;5.67;4.83;;;24.90;91.30;;;;;;4977666;28;20432;-89
2022/06/25 09:32:45;;;;;;;6.70;5.23;;;25.00;90.70;;;;;;4977770;28;20429;-89
2022/06/25 09:36:03;;;;;;;7.97;5.70;;;25.00;90.60;;;;;;4977743;28;20487;-89
2022/06/25 09:38:25;;;;;;;5.57;5.10;;;25.20;90.00;;;;;;5006513;28;20556;-88
2022/06/25 09:40:57;;;;;;;7.07;4.97;;;25.40;89.60;;;;;;4988404;28;20515;-89
2022/06/25 09:43:29;;;;;;;3.90;3.70;;;25.40;89.20;;;;;;4988540;28;20307;-88
2022/06/25 09:46:01;;;;;;;4.30;4.03;;;25.40;88.70;;;;;;4997168;28;20420;-88
2022/06/25 09:48:29;;;;;;;4.80;4.27;;;25.40;89.10;;;;;;5009147;28;20949;-88
2022/06/25 09:51:28;;;;;;;3.83;3.27;;;25.50;89.20;;;;;;5009630;28;20423;-88
2022/06/25 09:53:55;;;;;;;6.97;4.50;;;25.70;89.50;;;;;;4996715;28;20467;-88
2022/06/25 09:56:29;;;;;;;4.00;3.90;;;25.80;89.80;;;;;;5001573;28;20480;-88
2022/06/25 09:58:56;;;;;;;4.13;3.93;;;25.90;88.70;;;;;;5033743;28;20450;-89
2022/06/25 10:01:32;;;;;;;5.73;4.53;;;26.00;89.10;;;;;;5015067;28;20541;-88
2022/06/25 10:04:06;;;;;;;6.50;4.23;;;26.10;88.80;;;;;;5014785;28;20431;-88
2022/06/25 10:06:47;;;;;;;7.23;4.37;;;26.10;88.20;;;;;;4996266;28;20482;-88
2022/06/25 10:09:16;;;;;;;4.57;4.07;;;26.10;88.40;;;;;;5013882;28;20415;-88
2022/06/25 10:11:55;;;;;;;4.23;3.80;;;26.10;88.30;;;;;;5015301;28;20427;-89
2022/06/25 10:14:35;;;;;;;4.33;4.07;;;26.10;87.80;;;;;;4976807;28;20475;-88
2022/06/25 10:17:35;;;;;;;4.53;3.83;;;26.10;87.80;;;;;;4991891;28;20574;-87
2022/06/25 10:23:16;;;;;;;3.73;3.57;;;26.30;86.40;;;;;;5015446;28;20419;-87
2022/06/25 10:25:47;;;;;;;3.70;3.23;;;26.40;86.00;;;;;;5009343;28;20431;-88
2022/06/25 10:28:36;;;;;;;5.83;3.50;;;26.50;84.60;;;;;;5008538;28;20857;-86
2022/06/25 10:31:18;;;;;;;4.40;2.83;;;26.70;84.70;;;;;;4997427;28;20420;-84
2022/06/25 10:34:17;;;;;;;3.40;3.20;;;26.80;84.00;;;;;;4995850;28;20480;-84
2022/06/25 10:36:58;;;;;;;4.13;3.10;;;26.80;83.90;;;;;;5010008;28;20435;-85
2022/06/25 10:39:27;;;;;;;3.10;2.90;;;26.80;83.90;;;;;;5015289;28;20426;-84
2022/06/25 10:45:04;;;;;;;3.07;2.90;;;27.00;83.60;;;;;;5025938;28;20493;-85
2022/06/25 10:47:58;;;;;;;3.70;2.77;;;27.20;83.60;;;;;;4995519;28;20432;-85
2022/06/25 10:50:28;;;;;;;3.53;3.40;;;27.40;82.70;;;;;;4988811;28;20411;-85
2022/06/25 10:53:05;;;;;;;4.50;3.30;;;27.50;81.90;;;;;;5015131;28;20415;-84
2022/06/25 10:55:47;;;;;;;6.30;3.30;;;27.40;81.80;;;;;;5007346;28;20434;-86
2022/06/25 10:58:26;;;;;;;3.40;3.20;;;27.20;82.10;;;;;;4998205;28;20478;-85
2022/06/25 11:01:17;;;;;;;4.63;3.43;;;27.00;82.40;;;;;;4991212;28;20403;-85
2022/06/25 11:03:56;;;;;;;3.20;3.00;;;26.90;82.70;;;;;;4989607;28;20424;-84
2022/06/25 11:07:01;;;;;;;3.10;2.87;;;26.80;83.40;;;;;;5017701;28;20430;-85
2022/06/25 11:43:59;;;;;;;2.63;2.50;;;28.20;76.70;;;;;;5008538;28;20438;-85
2022/06/25 11:46:26;;;;;;;2.40;2.20;;;28.30;76.00;;;;;;4973645;28;20907;-84
2022/06/25 11:48:57;;;;;;;2.33;2.13;;;28.30;78.00;;;;;;4981383;28;20428;-83
2022/06/25 11:51:26;;;;;;;2.63;2.30;;;28.40;78.00;;;;;;4981335;28;20424;-83
2022/06/25 11:53:56;;;;;;;2.47;2.30;;;28.50;76.10;;;;;;4980686;28;20550;-83
2022/06/25 11:56:27;;;;;;;3.40;2.53;;;28.60;76.50;;;;;;4971795;28;20472;-85
2022/06/25 11:58:57;;;;;;;2.87;2.70;;;28.60;75.60;;;;;;4980945;28;20437;-85
2022/06/25 12:01:35;;;;;;;3.53;2.60;;;28.50;76.00;;;;;;4987085;28;20422;-84
2022/06/25 12:04:38;;;;;;;;;;;;;;;;;;;;;
2022/06/25 12:14:16;;;;;;;4.10;2.60;;;28.60;77.60;;;;;;4873052;29;20487;-87
2022/06/25 12:17:17;;;;;;;;;;;;;;;;;;;;;
2022/06/25 12:23:07;;;;;;;2.63;2.47;;;29.20;76.00;;;;;;4915851;23;21252;-88
2022/06/25 12:25:35;;;;;;;3.50;2.47;;;29.30;76.50;;;;;;5015951;28;20424;-89
2022/06/25 12:28:36;;;;;;;2.93;2.77;;;29.50;75.60;;;;;;5033949;28;20415;-90
2022/06/25 12:31:58;;;;;;;3.10;2.60;;;29.50;75.50;;;;;;4938823;29;20431;-90
2022/06/25 12:34:36;;;;;;;2.57;2.30;;;29.60;74.10;;;;;;5008574;23;20492;-90
2022/06/25 12:41:56;;;;;;;2.27;2.07;;;29.60;74.70;;;;;;4860888;29;20505;-89
2022/06/25 12:45:26;;;;;;;2.47;2.30;;;29.80;73.60;;;;;;4820296;29;20448;-89
2022/06/25 12:48:56;;;;;;;2.40;2.20;;;30.00;73.80;;;;;;4761777;30;20428;-89
2022/06/25 12:51:46;;;;;;;2.73;2.53;;;30.20;73.50;;;;;;4718627;30;20438;-90
2022/06/25 12:55:06;;;;;;;2.43;2.23;;;30.30;73.70;;;;;;4717594;30;20481;-89
2022/06/25 13:01:47;;;;;;;2.50;2.30;;;30.30;74.30;;;;;;4756892;30;20576;-89
2022/06/25 13:04:36;;;;;;;4.77;3.93;;;30.00;74.20;;;;;;4751670;30;20512;-90
2022/06/25 13:07:16;;;;;;;2.60;2.40;;;29.80;73.40;;;;;;4736747;30;20477;-91
2022/06/25 13:10:27;;;;;;;;;;;;;;;;;;;;;
2022/06/25 13:20:27;;;;;;;6.50;2.50;;;30.50;72.70;;;;;;4875170;29;20854;-89
2022/06/25 13:26:17;;;;;;;3.00;2.80;;;30.50;72.50;;;;;;4883135;29;20525;-89
2022/06/25 13:29:07;;;;;;;5.70;2.77;;;30.40;72.20;;;;;;4937098;29;20619;-89
2022/06/25 13:32:05;;;;;;;5.50;2.60;;;30.30;72.90;;;;;;4934088;29;20425;-89
2022/06/25 13:34:37;;;;;;;2.50;2.30;;;30.20;73.10;;;;;;4917906;29;20501;-89
2022/06/25 13:37:47;;;;;;;4.00;2.20;;;30.10;73.80;;;;;;4927140;29;20450;-89
2022/06/25 13:41:17;;;;;;;;;;;;;;;;;;;;;
2022/06/25 13:43:49;;;;;;;4.27;2.70;;;30.00;73.80;;;;;;4925867;29;20443;-89
2022/06/25 13:53:16;;;;;;;6.17;2.80;;;29.80;74.50;;;;;;4875943;29;20445;-89
2022/06/25 13:56:16;;;;;;;4.37;2.80;;;29.90;74.10;;;;;;4898437;29;20439;-89
2022/06/25 13:59:17;;;;;;;2.90;2.27;;;29.90;76.00;;;;;;4928291;29;20973;-89
2022/06/25 14:05:20;;;;;;;;;;;;;;;;;;;;;
2022/06/25 14:08:46;;;;;;;2.67;2.20;;;30.00;74.50;;;;;;5035726;28;20506;-90
2022/06/25 14:11:17;;;;;;;3.27;2.30;;;29.90;73.40;;;;;;5007845;28;20491;-88
2022/06/25 14:13:47;;;;;;;3.97;2.47;;;29.80;73.40;;;;;;5025493;23;20538;-89
2022/06/25 14:17:05;;;;;;;3.87;2.60;;;29.70;74.10;;;;;;5014898;28;20414;-89
2022/06/25 14:20:47;;;;;;;;;;;;;;;;;;;;;
2022/06/25 14:31:16;;;;;;;2.83;2.60;;;29.40;74.30;;;;;;4863436;29;20470;-90
2022/06/25 14:34:47;;;;;;;3.13;2.93;;;29.30;74.20;;;;;;4881949;29;20472;-89
2022/06/25 14:44:27;;;;;;;2.73;2.53;;;29.40;75.30;;;;;;4841163;29;20487;-90
2022/06/25 14:47:47;;;;;;;2.40;2.20;;;29.40;75.60;;;;;;4814482;29;20428;-90
2022/06/25 14:51:05;;;;;;;3.77;2.77;;;29.30;74.80;;;;;;4840068;29;20432;-90
2022/06/25 14:53:37;;;;;;;3.60;2.90;;;29.20;75.80;;;;;;4880710;29;20991;-89
2022/06/25 14:57:07;;;;;;;;;;;;;;;;;;;;;
2022/06/25 15:03:48;;;;;;;3.17;2.97;;;29.20;75.10;;;;;;4861889;29;20471;-90
2022/06/25 15:06:26;;;;;;;3.77;2.77;;;29.10;75.80;;;;;;4903781;29;20847;-89
2022/06/25 15:15:45;;;;;;;;;;;;;;;;;;;;;
2022/06/25 15:18:17;;;;;;;2.73;2.53;;;28.90;75.80;;;;;;4866945;29;20426;-90
2022/06/25 15:24:06;;;;;;;6.87;3.00;;;28.80;76.10;;;;;;4980815;23;20490;-85
2022/06/25 15:26:35;;;;;;;4.87;4.10;;;28.80;75.70;;;;;;5010226;28;20440;-85
2022/06/25 15:29:06;;;;;;;3.70;3.40;;;28.80;75.70;;;;;;4994218;28;20416;-85
2022/06/25 15:31:32;;;;;;;3.00;2.77;;;28.80;75.80;;;;;;4994176;28;20953;-86
2022/06/25 15:33:57;;;;;;;4.43;3.77;;;28.70;75.70;;;;;;4994658;28;20456;-87
2022/06/25 15:36:25;;;;;;;4.87;3.37;;;28.70;75.40;;;;;;4994093;28;20941;-86
2022/06/25 15:38:55;;;;;;;4.20;2.70;;;28.60;75.80;;;;;;4994531;28;20613;-86
2022/06/25 15:41:22;;;;;;;5.37;3.30;;;28.60;76.20;;;;;;4994134;28;20472;-86
2022/06/25 15:43:48;;;;;;;3.90;2.80;;;28.60;77.70;;;;;;4994159;28;20423;-86
2022/06/25 15:46:14;;;;;;;4.50;2.87;;;28.60;76.20;;;;;;4994487;28;21021;-86
2022/06/25 15:48:40;;;;;;;4.60;2.50;;;28.60;76.00;;;;;;4993968;28;20651;-87
2022/06/25 15:51:06;;;;;;;5.67;2.60;;;28.50;76.20;;;;;;4994126;28;20428;-87
2022/06/25 15:53:38;;;;;;;4.93;2.40;;;28.50;76.40;;;;;;4994011;28;20462;-86
2022/06/25 15:56:06;;;;;;;3.60;2.87;;;28.50;76.50;;;;;;4994075;28;20432;-85
2022/06/25 16:01:19;;;;;;;3.00;2.80;;;28.50;77.00;;;;;;5011754;28;20423;-87
2022/06/25 16:03:45;;;;;;;2.83;2.63;;;28.50;77.50;;;;;;5013761;28;20416;-86
2022/06/25 16:06:15;;;;;;;2.83;2.63;;;28.50;77.40;;;;;;5013308;28;20574;-86
2022/06/25 16:08:45;;;;;;;2.83;2.63;;;28.40;77.10;;;;;;4997196;28;21208;-86
2022/06/25 16:11:34;;;;;;;2.77;2.57;;;28.40;77.40;;;;;;5012205;28;20519;-86
2022/06/25 16:14:10;;;;;;;2.70;2.40;;;28.40;77.20;;;;;;4986383;28;20458;-87
2022/06/25 16:16:38;;;;;;;4.77;3.00;;;28.30;77.40;;;;;;4998942;28;20471;-86
2022/06/25 16:19:06;;;;;;;2.30;1.90;;;28.30;77.60;;;;;;4993914;28;20424;-85
2022/06/25 16:21:34;;;;;;;6.00;2.47;;;28.30;77.80;;;;;;4993748;28;20483;-87
2022/06/25 16:23:59;;;;;;;4.43;3.60;;;28.20;78.20;;;;;;4993935;28;20468;-87
2022/06/25 16:26:25;;;;;;;7.43;4.20;;;28.30;78.90;;;;;;4997378;28;20442;-86
2022/06/25 16:28:51;;;;;;;3.40;3.00;;;28.20;80.40;;;;;;4997562;28;20204;-87
2022/06/25 16:31:17;;;;;;;2.83;2.70;;;28.20;80.20;;;;;;5027002;28;20652;-86
2022/06/25 16:33:43;;;;;;;2.73;2.53;;;28.20;80.40;;;;;;4998272;28;20458;-86
2022/06/25 16:36:09;;;;;;;6.67;3.23;;;28.10;80.60;;;;;;4997436;28;20173;-87
2022/06/25 16:38:36;;;;;;;6.43;5.00;;;28.10;81.20;;;;;;4997008;28;20428;-86
2022/06/25 16:41:03;;;;;;;9.53;5.40;;;28.00;81.80;;;;;;4997279;28;20527;-87
2022/06/25 16:46:16;;;;;;;7.47;3.67;;;28.00;82.00;;;;;;5014174;28;20423;-84
2022/06/25 16:48:45;;;;;;;2.83;2.63;;;27.90;82.30;;;;;;4996297;28;20801;-83